Archival Weather

Pocono Mountains Rgnl

Mount Pocono, Pennsylvania (KMPO)

Report from: Tuesday, May 21, 2024 12:53 PM EDT
Current time: Thursday, July 18, 2024 10:18 PM EDT

Current weather – Weather history – Daily summaries
Weather forecast

Temperature25.6°C (78.1°F)
Dew point12.8°C (55.0°F)
Winds 7 kts (3.6 m/s, 8.1 mph) West-Southwest (250°)
Visibility10 mi. (16.1 km)
Clouds Ceiling: Overcast 6,500 ft. (1,981 m)
Altimeter30.01 in.Hg (1016 mB)
Relative humidity45 %
Density altitude1,364 ft. (416 m)
Sea-level pressure101.5 kPa (1015 mB, 29.98 in.Hg)
Remarks Fully automated report
Automated weather observing station with precipitation discriminator
Flight conditions Visual Meteorological Conditions
Raw dataKMPO 211653Z AUTO 25007KT 10SM OVC065 26/13 A3001 RMK AO2 SLP153 T02560128
An error has occurred. This application may no longer respond until reloaded. Reload 🗙